Terminal Aerodrome Forecast
Issued by NWS Cleveland, OH

Home | Current Version | Previous Version | Graphics & Text | Print | Product List | Glossary Off
Versions: 1 2 3 4 5 6 7 8 9 10 11 12

000
FTUS41 KCLE 031739
TAFTOL
TAF
KTOL 031739Z 0318/0418 08008KT P6SM SCT035 BKN200
     FM040100 03003KT P6SM SCT250
     FM041000 35005KT P6SM SCT250=

USA.gov is the U.S. government's official web portal to all federal, state and local government web resources and services.